sensor_id;sensor_type;location;lat;lon;timestamp;temperature;humidity
16532;DHT22;66872;63.142;14.482;2023-02-11T00:00:07;22.00;13.90
16532;DHT22;66872;63.142;14.482;2023-02-11T00:02:33;21.90;13.90
16532;DHT22;66872;63.142;14.482;2023-02-11T00:04:59;22.00;13.90
16532;DHT22;66872;63.142;14.482;2023-02-11T00:07:29;22.00;14.00
16532;DHT22;66872;63.142;14.482;2023-02-11T00:09:54;21.90;13.90
16532;DHT22;66872;63.142;14.482;2023-02-11T00:12:21;21.90;14.00
16532;DHT22;66872;63.142;14.482;2023-02-11T00:14:47;21.90;13.90
16532;DHT22;66872;63.142;14.482;2023-02-11T00:17:13;21.90;13.90
16532;DHT22;66872;63.142;14.482;2023-02-11T00:19:39;21.90;14.00
16532;DHT22;66872;63.142;14.482;2023-02-11T00:22:05;22.00;14.00
16532;DHT22;66872;63.142;14.482;2023-02-11T00:24:31;21.90;13.90
16532;DHT22;66872;63.142;14.482;2023-02-11T00:26:56;22.00;14.00
16532;DHT22;66872;63.142;14.482;2023-02-11T00:29:22;21.90;13.90
16532;DHT22;66872;63.142;14.482;2023-02-11T00:31:48;21.90;14.00
16532;DHT22;66872;63.142;14.482;2023-02-11T00:34:13;22.00;14.00
16532;DHT22;66872;63.142;14.482;2023-02-11T00:36:39;21.90;13.90
16532;DHT22;66872;63.142;14.482;2023-02-11T00:39:06;21.90;14.10
16532;DHT22;66872;63.142;14.482;2023-02-11T00:41:32;21.90;13.80
16532;DHT22;66872;63.142;14.482;2023-02-11T00:43:58;21.90;13.80
16532;DHT22;66872;63.142;14.482;2023-02-11T00:46:24;21.90;13.80
16532;DHT22;66872;63.142;14.482;2023-02-11T00:48:50;21.90;13.80
16532;DHT22;66872;63.142;14.482;2023-02-11T00:51:17;21.90;13.80
16532;DHT22;66872;63.142;14.482;2023-02-11T00:53:43;21.90;13.80
16532;DHT22;66872;63.142;14.482;2023-02-11T00:56:09;21.90;13.70
16532;DHT22;66872;63.142;14.482;2023-02-11T00:58:36;21.90;13.70
16532;DHT22;66872;63.142;14.482;2023-02-11T01:01:02;21.80;13.70
16532;DHT22;66872;63.142;14.482;2023-02-11T01:03:27;21.90;13.80
16532;DHT22;66872;63.142;14.482;2023-02-11T01:05:53;21.80;13.70
16532;DHT22;66872;63.142;14.482;2023-02-11T01:08:19;21.80;13.70
16532;DHT22;66872;63.142;14.482;2023-02-11T01:11:02;21.80;13.80
16532;DHT22;66872;63.142;14.482;2023-02-11T01:13:29;21.80;13.80
16532;DHT22;66872;63.142;14.482;2023-02-11T01:15:55;21.80;13.80
16532;DHT22;66872;63.142;14.482;2023-02-11T01:18:20;21.80;14.30
16532;DHT22;66872;63.142;14.482;2023-02-11T01:20:46;21.80;13.80
16532;DHT22;66872;63.142;14.482;2023-02-11T01:23:12;21.80;13.80
16532;DHT22;66872;63.142;14.482;2023-02-11T01:25:37;21.80;13.80
16532;DHT22;66872;63.142;14.482;2023-02-11T01:28:03;21.80;13.80
16532;DHT22;66872;63.142;14.482;2023-02-11T01:30:29;21.90;13.90
16532;DHT22;66872;63.142;14.482;2023-02-11T01:32:54;21.80;13.80
16532;DHT22;66872;63.142;14.482;2023-02-11T01:35:20;21.80;13.90
16532;DHT22;66872;63.142;14.482;2023-02-11T01:37:45;21.80;13.90
16532;DHT22;66872;63.142;14.482;2023-02-11T01:40:15;21.80;13.80
16532;DHT22;66872;63.142;14.482;2023-02-11T01:42:41;21.80;13.90
16532;DHT22;66872;63.142;14.482;2023-02-11T01:48:28;21.80;13.90
16532;DHT22;66872;63.142;14.482;2023-02-11T01:51:00;21.80;13.90
16532;DHT22;66872;63.142;14.482;2023-02-11T01:53:28;21.80;13.90
16532;DHT22;66872;63.142;14.482;2023-02-11T01:56:12;21.80;14.00
16532;DHT22;66872;63.142;14.482;2023-02-11T01:59:02;21.80;14.00
16532;DHT22;66872;63.142;14.482;2023-02-11T02:01:31;21.80;14.00
16532;DHT22;66872;63.142;14.482;2023-02-11T02:04:00;21.80;14.10
16532;DHT22;66872;63.142;14.482;2023-02-11T02:07:04;21.80;14.10
16532;DHT22;66872;63.142;14.482;2023-02-11T02:09:39;21.80;14.10
16532;DHT22;66872;63.142;14.482;2023-02-11T02:12:06;21.80;14.00
16532;DHT22;66872;63.142;14.482;2023-02-11T02:14:31;21.80;14.10
16532;DHT22;66872;63.142;14.482;2023-02-11T02:16:57;21.80;14.10
16532;DHT22;66872;63.142;14.482;2023-02-11T02:31:52;21.80;14.70
16532;DHT22;66872;63.142;14.482;2023-02-11T02:38:54;21.80;14.20
16532;DHT22;66872;63.142;14.482;2023-02-11T02:41:30;21.80;14.20
16532;DHT22;66872;63.142;14.482;2023-02-11T02:43:57;21.80;14.20
16532;DHT22;66872;63.142;14.482;2023-02-11T02:46:24;21.80;14.10
16532;DHT22;66872;63.142;14.482;2023-02-11T02:48:51;21.80;14.20
16532;DHT22;66872;63.142;14.482;2023-02-11T03:02:38;21.80;14.20
16532;DHT22;66872;63.142;14.482;2023-02-11T03:08:06;21.80;14.20
16532;DHT22;66872;63.142;14.482;2023-02-11T03:10:53;21.80;14.20
16532;DHT22;66872;63.142;14.482;2023-02-11T03:13:25;21.80;14.20
16532;DHT22;66872;63.142;14.482;2023-02-11T03:15:55;21.80;14.20
16532;DHT22;66872;63.142;14.482;2023-02-11T03:18:24;21.80;14.10
16532;DHT22;66872;63.142;14.482;2023-02-11T03:20:52;21.80;14.20
16532;DHT22;66872;63.142;14.482;2023-02-11T03:23:39;21.80;14.20
16532;DHT22;66872;63.142;14.482;2023-02-11T03:28:54;21.80;14.20
16532;DHT22;66872;63.142;14.482;2023-02-11T03:31:33;21.80;14.20
16532;DHT22;66872;63.142;14.482;2023-02-11T03:34:12;21.80;14.20
16532;DHT22;66872;63.142;14.482;2023-02-11T03:39:15;21.80;14.20
16532;DHT22;66872;63.142;14.482;2023-02-11T03:41:41;21.80;14.20
16532;DHT22;66872;63.142;14.482;2023-02-11T03:44:09;21.80;14.20
16532;DHT22;66872;63.142;14.482;2023-02-11T03:46:38;21.80;14.20
16532;DHT22;66872;63.142;14.482;2023-02-11T03:49:10;21.80;14.20
16532;DHT22;66872;63.142;14.482;2023-02-11T03:51:37;21.80;14.20
16532;DHT22;66872;63.142;14.482;2023-02-11T03:54:08;21.80;14.10
16532;DHT22;66872;63.142;14.482;2023-02-11T03:56:42;21.80;14.10
16532;DHT22;66872;63.142;14.482;2023-02-11T03:59:10;21.80;14.20
16532;DHT22;66872;63.142;14.482;2023-02-11T04:01:36;21.80;14.10
16532;DHT22;66872;63.142;14.482;2023-02-11T04:04:01;21.80;14.10
16532;DHT22;66872;63.142;14.482;2023-02-11T04:06:27;21.80;14.20
16532;DHT22;66872;63.142;14.482;2023-02-11T04:08:53;21.80;14.10
16532;DHT22;66872;63.142;14.482;2023-02-11T04:11:18;21.80;14.00
16532;DHT22;66872;63.142;14.482;2023-02-11T04:13:44;21.80;14.00
16532;DHT22;66872;63.142;14.482;2023-02-11T04:16:09;21.70;13.90
16532;DHT22;66872;63.142;14.482;2023-02-11T04:18:35;21.70;13.90
16532;DHT22;66872;63.142;14.482;2023-02-11T04:21:01;21.70;13.90
16532;DHT22;66872;63.142;14.482;2023-02-11T04:23:26;21.80;14.00
16532;DHT22;66872;63.142;14.482;2023-02-11T04:25:52;21.80;14.00
16532;DHT22;66872;63.142;14.482;2023-02-11T04:28:18;21.70;13.90
16532;DHT22;66872;63.142;14.482;2023-02-11T04:30:43;21.70;14.00
16532;DHT22;66872;63.142;14.482;2023-02-11T04:33:09;21.70;14.00
16532;DHT22;66872;63.142;14.482;2023-02-11T04:35:34;21.80;14.00
16532;DHT22;66872;63.142;14.482;2023-02-11T04:38:00;21.70;14.00
16532;DHT22;66872;63.142;14.482;2023-02-11T04:40:26;21.80;14.10
16532;DHT22;66872;63.142;14.482;2023-02-11T04:42:51;21.80;14.10
16532;DHT22;66872;63.142;14.482;2023-02-11T04:45:17;21.80;14.00
16532;DHT22;66872;63.142;14.482;2023-02-11T04:47:43;21.80;14.00
16532;DHT22;66872;63.142;14.482;2023-02-11T04:50:09;21.70;13.90
16532;DHT22;66872;63.142;14.482;2023-02-11T04:52:34;21.70;13.90
16532;DHT22;66872;63.142;14.482;2023-02-11T04:55:00;21.70;13.90
16532;DHT22;66872;63.142;14.482;2023-02-11T04:57:25;21.70;13.90
16532;DHT22;66872;63.142;14.482;2023-02-11T04:59:51;21.80;14.00
16532;DHT22;66872;63.142;14.482;2023-02-11T05:02:17;21.70;13.90
16532;DHT22;66872;63.142;14.482;2023-02-11T05:04:42;21.70;13.90
16532;DHT22;66872;63.142;14.482;2023-02-11T05:07:08;21.80;14.00
16532;DHT22;66872;63.142;14.482;2023-02-11T05:09:34;21.80;14.00
16532;DHT22;66872;63.142;14.482;2023-02-11T05:11:59;21.70;13.90
16532;DHT22;66872;63.142;14.482;2023-02-11T05:14:25;21.70;13.90
16532;DHT22;66872;63.142;14.482;2023-02-11T05:16:51;21.80;14.00
16532;DHT22;66872;63.142;14.482;2023-02-11T05:19:16;21.80;14.00
16532;DHT22;66872;63.142;14.482;2023-02-11T05:21:42;21.80;14.00
16532;DHT22;66872;63.142;14.482;2023-02-11T05:24:08;21.80;13.90
16532;DHT22;66872;63.142;14.482;2023-02-11T05:26:33;21.80;13.90
16532;DHT22;66872;63.142;14.482;2023-02-11T05:28:59;21.80;13.80
16532;DHT22;66872;63.142;14.482;2023-02-11T05:31:25;21.70;14.20
16532;DHT22;66872;63.142;14.482;2023-02-11T05:33:50;21.80;13.80
16532;DHT22;66872;63.142;14.482;2023-02-11T05:36:16;21.70;13.60
16532;DHT22;66872;63.142;14.482;2023-02-11T05:38:42;21.70;13.60
16532;DHT22;66872;63.142;14.482;2023-02-11T05:41:09;21.70;13.60
16532;DHT22;66872;63.142;14.482;2023-02-11T05:43:34;21.70;13.70
16532;DHT22;66872;63.142;14.482;2023-02-11T05:46:02;21.70;13.60
16532;DHT22;66872;63.142;14.482;2023-02-11T05:48:28;21.70;13.60
16532;DHT22;66872;63.142;14.482;2023-02-11T05:50:53;21.70;13.60
16532;DHT22;66872;63.142;14.482;2023-02-11T05:53:19;21.70;13.50
16532;DHT22;66872;63.142;14.482;2023-02-11T05:55:45;21.70;13.50
16532;DHT22;66872;63.142;14.482;2023-02-11T05:58:10;21.70;13.50
16532;DHT22;66872;63.142;14.482;2023-02-11T06:00:36;21.70;13.50
16532;DHT22;66872;63.142;14.482;2023-02-11T06:03:02;21.70;13.40
16532;DHT22;66872;63.142;14.482;2023-02-11T06:05:29;21.70;13.50
16532;DHT22;66872;63.142;14.482;2023-02-11T06:07:55;21.70;13.50
16532;DHT22;66872;63.142;14.482;2023-02-11T06:10:20;21.70;13.50
16532;DHT22;66872;63.142;14.482;2023-02-11T06:12:46;21.70;13.50
16532;DHT22;66872;63.142;14.482;2023-02-11T06:15:12;21.70;13.60
16532;DHT22;66872;63.142;14.482;2023-02-11T06:17:37;21.70;13.50
16532;DHT22;66872;63.142;14.482;2023-02-11T06:20:06;21.70;13.50
16532;DHT22;66872;63.142;14.482;2023-02-11T06:22:32;21.70;13.50
16532;DHT22;66872;63.142;14.482;2023-02-11T06:24:58;21.70;13.50
16532;DHT22;66872;63.142;14.482;2023-02-11T06:27:24;21.80;13.50
16532;DHT22;66872;63.142;14.482;2023-02-11T06:29:49;21.70;13.40
16532;DHT22;66872;63.142;14.482;2023-02-11T06:32:17;21.70;13.30
16532;DHT22;66872;63.142;14.482;2023-02-11T06:34:42;21.70;13.20
16532;DHT22;66872;63.142;14.482;2023-02-11T06:37:08;21.70;13.20
16532;DHT22;66872;63.142;14.482;2023-02-11T06:39:34;21.70;13.20
16532;DHT22;66872;63.142;14.482;2023-02-11T06:41:59;21.70;13.30
16532;DHT22;66872;63.142;14.482;2023-02-11T06:44:25;21.70;13.40
16532;DHT22;66872;63.142;14.482;2023-02-11T06:46:50;21.70;13.40
16532;DHT22;66872;63.142;14.482;2023-02-11T06:49:16;21.70;13.50
16532;DHT22;66872;63.142;14.482;2023-02-11T06:51:42;21.70;13.60
16532;DHT22;66872;63.142;14.482;2023-02-11T06:54:07;21.70;13.60
16532;DHT22;66872;63.142;14.482;2023-02-11T06:56:33;21.70;13.60
16532;DHT22;66872;63.142;14.482;2023-02-11T06:58:59;21.70;13.60
16532;DHT22;66872;63.142;14.482;2023-02-11T07:01:25;21.70;13.60
16532;DHT22;66872;63.142;14.482;2023-02-11T07:03:52;21.70;13.60
16532;DHT22;66872;63.142;14.482;2023-02-11T07:06:23;21.70;13.70
16532;DHT22;66872;63.142;14.482;2023-02-11T07:08:50;21.70;13.60
16532;DHT22;66872;63.142;14.482;2023-02-11T07:11:27;21.70;13.60
16532;DHT22;66872;63.142;14.482;2023-02-11T07:13:55;21.70;13.70
16532;DHT22;66872;63.142;14.482;2023-02-11T07:16:21;21.70;13.70
16532;DHT22;66872;63.142;14.482;2023-02-11T07:18:47;21.70;13.60
16532;DHT22;66872;63.142;14.482;2023-02-11T07:21:17;21.70;13.70
16532;DHT22;66872;63.142;14.482;2023-02-11T07:23:43;21.70;13.70
16532;DHT22;66872;63.142;14.482;2023-02-11T07:26:12;21.70;13.70
16532;DHT22;66872;63.142;14.482;2023-02-11T07:28:39;21.70;13.70
16532;DHT22;66872;63.142;14.482;2023-02-11T07:33:32;21.70;13.70
16532;DHT22;66872;63.142;14.482;2023-02-11T07:35:59;21.70;13.70
16532;DHT22;66872;63.142;14.482;2023-02-11T07:38:26;21.70;13.70
16532;DHT22;66872;63.142;14.482;2023-02-11T07:40:51;21.70;13.70
16532;DHT22;66872;63.142;14.482;2023-02-11T07:43:17;21.70;13.70
16532;DHT22;66872;63.142;14.482;2023-02-11T07:45:42;21.80;13.80
16532;DHT22;66872;63.142;14.482;2023-02-11T07:48:08;21.70;13.80
16532;DHT22;66872;63.142;14.482;2023-02-11T07:50:34;21.80;14.90
16532;DHT22;66872;63.142;14.482;2023-02-11T07:52:59;21.80;15.90
16532;DHT22;66872;63.142;14.482;2023-02-11T07:55:25;21.80;16.30
16532;DHT22;66872;63.142;14.482;2023-02-11T07:57:51;21.80;16.60
16532;DHT22;66872;63.142;14.482;2023-02-11T08:00:16;21.80;16.80
16532;DHT22;66872;63.142;14.482;2023-02-11T08:02:42;21.80;16.90
16532;DHT22;66872;63.142;14.482;2023-02-11T08:05:08;21.80;17.00
16532;DHT22;66872;63.142;14.482;2023-02-11T08:07:33;21.80;17.00
16532;DHT22;66872;63.142;14.482;2023-02-11T08:09:59;21.80;17.00
16532;DHT22;66872;63.142;14.482;2023-02-11T08:12:24;21.80;17.00
16532;DHT22;66872;63.142;14.482;2023-02-11T08:14:50;21.80;17.00
16532;DHT22;66872;63.142;14.482;2023-02-11T08:17:16;21.80;17.10
16532;DHT22;66872;63.142;14.482;2023-02-11T08:19:42;21.80;17.00
16532;DHT22;66872;63.142;14.482;2023-02-11T08:22:07;21.80;17.30
16532;DHT22;66872;63.142;14.482;2023-02-11T08:24:33;21.80;17.00
16532;DHT22;66872;63.142;14.482;2023-02-11T08:26:59;21.80;17.00
16532;DHT22;66872;63.142;14.482;2023-02-11T08:29:24;21.80;17.00
16532;DHT22;66872;63.142;14.482;2023-02-11T08:31:50;21.80;17.00
16532;DHT22;66872;63.142;14.482;2023-02-11T08:34:16;21.80;17.40
16532;DHT22;66872;63.142;14.482;2023-02-11T08:36:45;21.80;16.90
16532;DHT22;66872;63.142;14.482;2023-02-11T08:39:18;21.80;16.80
16532;DHT22;66872;63.142;14.482;2023-02-11T08:41:45;21.80;16.80
16532;DHT22;66872;63.142;14.482;2023-02-11T08:44:11;21.80;16.70
16532;DHT22;66872;63.142;14.482;2023-02-11T08:46:37;21.80;16.70
16532;DHT22;66872;63.142;14.482;2023-02-11T08:49:02;21.80;16.70
16532;DHT22;66872;63.142;14.482;2023-02-11T08:51:29;21.80;16.70
16532;DHT22;66872;63.142;14.482;2023-02-11T08:53:56;21.80;16.60
16532;DHT22;66872;63.142;14.482;2023-02-11T08:56:22;21.80;16.60
16532;DHT22;66872;63.142;14.482;2023-02-11T08:58:49;21.80;16.50
16532;DHT22;66872;63.142;14.482;2023-02-11T09:01:23;21.90;16.50
16532;DHT22;66872;63.142;14.482;2023-02-11T09:03:49;21.80;16.40
16532;DHT22;66872;63.142;14.482;2023-02-11T09:06:15;21.90;16.40
16532;DHT22;66872;63.142;14.482;2023-02-11T09:08:43;21.80;16.40
16532;DHT22;66872;63.142;14.482;2023-02-11T09:11:10;21.80;16.30
16532;DHT22;66872;63.142;14.482;2023-02-11T09:13:36;21.80;16.30
16532;DHT22;66872;63.142;14.482;2023-02-11T09:16:03;21.80;16.30
16532;DHT22;66872;63.142;14.482;2023-02-11T09:18:30;21.80;16.20
16532;DHT22;66872;63.142;14.482;2023-02-11T09:21:03;21.90;16.20
16532;DHT22;66872;63.142;14.482;2023-02-11T09:23:29;21.80;16.10
16532;DHT22;66872;63.142;14.482;2023-02-11T09:25:55;21.80;16.00
16532;DHT22;66872;63.142;14.482;2023-02-11T09:28:20;21.80;16.00
16532;DHT22;66872;63.142;14.482;2023-02-11T09:30:46;21.80;16.00
